createdAt,value
2022-08-05T00:06:30.732Z,5.30
2022-08-05T00:16:36.592Z,5.83
2022-08-05T00:26:54.629Z,8.17
2022-08-05T00:37:10.848Z,7.43
2022-08-05T00:47:16.359Z,4.28
2022-08-05T00:57:17.937Z,5.57
2022-08-05T01:07:31.666Z,5.00
2022-08-05T01:17:43.963Z,5.85
2022-08-05T01:27:55.398Z,7.53
2022-08-05T01:38:00.680Z,4.93
2022-08-05T01:48:03.882Z,5.38
2022-08-05T01:58:15.776Z,5.35
2022-08-05T02:08:30.654Z,3.50
2022-08-05T02:18:42.835Z,6.20
2022-08-05T02:28:46.314Z,6.45
2022-08-05T02:38:53.116Z,3.83
2022-08-05T02:48:57.000Z,7.63
2022-08-05T02:59:00.357Z,5.50
2022-08-05T03:09:02.196Z,6.47
2022-08-05T03:19:16.967Z,5.13
2022-08-05T03:39:58.680Z,7.68
2022-08-05T03:50:00.962Z,7.35
2022-08-05T04:00:09.175Z,6.15
2022-08-05T04:10:17.525Z,6.63
2022-08-05T04:20:22.126Z,6.60
2022-08-05T04:30:24.761Z,6.78
2022-08-05T04:40:28.027Z,9.00
2022-08-05T04:50:34.407Z,3.97
2022-08-05T05:00:39.868Z,5.53
2022-08-05T05:10:55.792Z,6.35
2022-08-05T05:20:58.489Z,5.03
2022-08-05T05:31:00.141Z,8.75
2022-08-05T05:41:02.034Z,10.20
2022-08-05T05:51:15.289Z,9.70
2022-08-05T06:01:17.514Z,5.72
2022-08-05T06:11:24.968Z,6.00
2022-08-05T06:21:35.865Z,5.00
2022-08-05T06:41:43.520Z,5.78
2022-08-05T06:51:47.263Z,8.15
2022-08-05T07:01:48.718Z,5.65
2022-08-05T07:11:54.487Z,5.63
2022-08-05T07:22:00.510Z,6.88
2022-08-05T07:32:03.979Z,6.15
2022-08-05T07:42:13.588Z,5.15
2022-08-05T08:02:26.637Z,4.53
2022-08-05T08:12:49.331Z,5.80
2022-08-05T08:22:55.999Z,3.80
2022-08-05T08:32:57.431Z,5.15
2022-08-05T08:45:21.359Z,4.20
2022-08-05T08:53:24.636Z,3.83
2022-08-05T09:03:28.787Z,4.80
2022-08-05T09:14:09.610Z,7.78
2022-08-05T09:24:08.779Z,6.00
2022-08-05T09:34:13.029Z,4.13
2022-08-05T09:44:33.108Z,4.07
2022-08-05T09:54:34.529Z,3.40
2022-08-05T10:04:38.303Z,8.00
2022-08-05T10:14:40.801Z,5.85
2022-08-05T10:24:46.480Z,6.80
2022-08-05T10:34:52.555Z,2.30
2022-08-05T10:44:56.259Z,2.58
2022-08-05T10:55:07.062Z,4.40
2022-08-05T11:05:10.235Z,2.85
2022-08-05T11:16:00.100Z,2.80
2022-08-05T11:26:28.996Z,2.10
2022-08-05T11:36:43.915Z,4.38
2022-08-05T11:47:09.983Z,5.97
2022-08-05T11:57:25.352Z,5.38
2022-08-05T12:08:04.394Z,3.17
2022-08-05T12:18:03.708Z,2.83
2022-08-05T12:28:05.895Z,3.22
2022-08-05T12:38:07.446Z,3.50
2022-08-05T12:48:26.959Z,5.13
2022-08-05T12:58:51.004Z,4.18
2022-08-05T13:08:54.984Z,2.85
2022-08-05T13:18:58.390Z,3.00
2022-08-05T13:29:00.698Z,4.15
2022-08-05T13:39:08.404Z,3.83
2022-08-05T13:49:25.843Z,3.15
2022-08-05T13:59:30.880Z,3.33
2022-08-05T14:09:34.185Z,5.90
2022-08-05T14:19:56.147Z,2.20
2022-08-05T14:29:59.165Z,3.33
2022-08-05T14:40:00.722Z,4.00
2022-08-05T14:50:15.695Z,4.35
2022-08-05T15:00:20.454Z,4.93
2022-08-05T15:10:30.056Z,1.17
2022-08-05T15:20:31.605Z,2.17
2022-08-05T15:30:33.928Z,3.17
2022-08-05T15:40:58.697Z,0.98
2022-08-05T15:51:03.402Z,1.90
2022-08-05T16:01:16.891Z,2.45
2022-08-05T16:11:21.098Z,2.40
2022-08-05T16:22:00.734Z,1.65
2022-08-05T16:32:02.171Z,0.90
2022-08-05T16:42:27.732Z,4.15
2022-08-05T16:52:33.584Z,1.65
2022-08-05T17:02:35.491Z,1.75
2022-08-05T17:12:51.000Z,0.70
2022-08-05T17:22:55.481Z,1.33
2022-08-05T17:32:57.351Z,1.80
2022-08-05T17:42:58.769Z,2.17
2022-08-05T17:53:05.147Z,1.40
2022-08-05T18:03:06.632Z,3.03
2022-08-05T18:13:12.249Z,1.75
2022-08-05T18:23:14.336Z,0.30
2022-08-05T18:33:16.191Z,0.98
2022-08-05T18:43:23.853Z,1.35
2022-08-05T18:53:25.325Z,0.88
2022-08-05T19:03:53.506Z,1.58
2022-08-05T19:13:49.255Z,1.65
2022-08-05T19:24:08.981Z,0.77
2022-08-05T19:34:14.244Z,1.50
2022-08-05T19:44:20.158Z,1.20
2022-08-05T20:04:32.770Z,1.85
2022-08-05T20:14:35.005Z,1.02
2022-08-05T20:34:39.339Z,2.13
2022-08-05T20:44:42.768Z,3.83
2022-08-05T20:55:15.891Z,6.85
2022-08-05T21:05:07.259Z,3.43
2022-08-05T21:15:10.926Z,2.22
2022-08-05T21:35:18.171Z,2.22
2022-08-05T21:45:56.597Z,2.63
2022-08-05T21:56:05.287Z,3.07
2022-08-05T22:06:11.658Z,3.58
2022-08-05T22:26:34.383Z,1.95
2022-08-05T22:36:36.847Z,1.63
2022-08-05T22:46:40.902Z,2.28
2022-08-05T22:56:42.808Z,2.33
2022-08-05T23:06:44.225Z,1.97
2022-08-05T23:16:46.881Z,3.95
2022-08-05T23:26:53.584Z,1.13
2022-08-05T23:36:55.032Z,3.03
2022-08-05T23:46:56.689Z,2.07
2022-08-05T23:57:03.856Z,2.53
